createdAt,value
2023-03-05T00:01:24.311Z,6.50
2023-03-05T00:03:53.771Z,6.90
2023-03-05T00:06:26.672Z,5.80
2023-03-05T00:08:56.854Z,6.05
2023-03-05T00:11:27.994Z,6.30
2023-03-05T00:13:56.484Z,6.25
2023-03-05T00:16:26.884Z,5.70
2023-03-05T00:18:59.027Z,5.93
2023-03-05T00:21:33.037Z,6.78
2023-03-05T00:24:02.395Z,6.03
2023-03-05T00:26:30.754Z,5.87
2023-03-05T00:28:58.885Z,5.43
2023-03-05T00:31:31.950Z,6.03
2023-03-05T00:34:02.752Z,6.50
2023-03-05T00:36:30.552Z,7.03
2023-03-05T00:38:59.257Z,5.95
2023-03-05T00:41:28.109Z,6.12
2023-03-05T00:43:56.062Z,6.03
2023-03-05T00:46:24.348Z,5.68
2023-03-05T00:48:52.256Z,5.63
2023-03-05T00:51:20.981Z,6.10
2023-03-05T00:53:48.519Z,5.78
2023-03-05T00:56:16.278Z,6.12
2023-03-05T00:58:44.046Z,5.87
2023-03-05T01:01:12.357Z,6.23
2023-03-05T01:03:40.739Z,6.20
2023-03-05T01:06:11.340Z,6.07
2023-03-05T01:08:40.101Z,5.70
2023-03-05T01:11:09.148Z,5.82
2023-03-05T01:13:37.409Z,5.07
2023-03-05T01:16:05.670Z,5.43
2023-03-05T01:18:33.999Z,5.62
2023-03-05T01:21:01.649Z,5.72
2023-03-05T01:23:29.136Z,6.07
2023-03-05T01:25:58.955Z,6.27
2023-03-05T01:28:27.600Z,6.37
2023-03-05T01:30:55.297Z,5.70
2023-03-05T01:33:23.397Z,5.65
2023-03-05T01:35:51.397Z,6.10
2023-03-05T01:38:19.257Z,6.17
2023-03-05T01:40:47.121Z,6.00
2023-03-05T01:43:27.430Z,5.90
2023-03-05T01:46:13.516Z,6.62
2023-03-05T01:48:42.949Z,6.35
2023-03-05T01:51:10.776Z,5.50
2023-03-05T01:53:38.293Z,6.25
2023-03-05T01:56:06.041Z,5.55
2023-03-05T01:58:34.284Z,5.90
2023-03-05T02:01:02.149Z,6.10
2023-03-05T02:03:30.063Z,5.33
2023-03-05T02:05:57.923Z,6.03
2023-03-05T02:08:25.681Z,6.00
2023-03-05T02:10:56.390Z,4.90
2023-03-05T02:13:27.956Z,6.18
2023-03-05T02:15:58.364Z,5.67
2023-03-05T02:18:26.295Z,6.28
2023-03-05T02:20:56.882Z,5.87
2023-03-05T02:23:36.534Z,5.55
2023-03-05T02:26:06.002Z,5.30
2023-03-05T02:28:38.068Z,5.77
2023-03-05T02:31:20.124Z,6.03
2023-03-05T02:33:48.352Z,5.53
2023-03-05T02:36:16.746Z,5.12
2023-03-05T02:38:45.676Z,4.70
2023-03-05T02:41:14.309Z,5.00
2023-03-05T02:43:42.512Z,5.05
2023-03-05T02:46:10.337Z,5.53
2023-03-05T02:48:39.956Z,5.18
2023-03-05T02:51:08.508Z,4.75
2023-03-05T02:53:36.109Z,5.30
2023-03-05T02:56:04.585Z,5.43
2023-03-05T02:58:33.582Z,5.57
2023-03-05T03:01:01.229Z,5.07
2023-03-05T03:03:29.447Z,4.78
2023-03-05T03:05:56.917Z,4.60
2023-03-05T03:08:24.462Z,5.62
2023-03-05T03:10:52.555Z,6.05
2023-03-05T03:13:20.057Z,5.07
2023-03-05T03:15:48.910Z,5.12
2023-03-05T03:18:17.041Z,4.90
2023-03-05T03:20:44.630Z,4.95
2023-03-05T03:23:12.123Z,5.35
2023-03-05T03:25:39.900Z,4.95
2023-03-05T03:28:07.536Z,4.57
2023-03-05T03:30:35.226Z,4.97
2023-03-05T03:33:03.736Z,4.85
2023-03-05T03:35:31.274Z,4.97
2023-03-05T03:37:58.772Z,4.72
2023-03-05T03:40:26.598Z,5.15
2023-03-05T03:42:54.707Z,5.50
2023-03-05T03:45:22.294Z,4.47
2023-03-05T03:47:50.814Z,4.87
2023-03-05T03:50:18.779Z,5.07
2023-03-05T03:52:46.321Z,5.57
2023-03-05T03:55:14.258Z,5.30
2023-03-05T03:57:41.712Z,5.05
2023-03-05T04:00:11.398Z,5.43
2023-03-05T04:02:39.768Z,4.97
2023-03-05T04:05:08.688Z,5.03
2023-03-05T04:07:36.344Z,5.20
2023-03-05T04:10:04.426Z,5.25
2023-03-05T04:12:32.587Z,5.10
2023-03-05T04:15:00.109Z,4.80
2023-03-05T04:17:27.646Z,5.60
2023-03-05T04:19:55.418Z,5.10
2023-03-05T04:22:22.998Z,6.10
2023-03-05T04:24:50.538Z,5.60
2023-03-05T04:27:18.340Z,5.45
2023-03-05T04:29:46.012Z,6.00
2023-03-05T04:32:13.716Z,5.70
2023-03-05T04:34:41.685Z,6.60
2023-03-05T04:37:09.178Z,6.00
2023-03-05T04:39:37.088Z,6.15
2023-03-05T04:42:05.110Z,6.32
2023-03-05T04:44:32.809Z,6.13
2023-03-05T04:47:00.462Z,5.90
2023-03-05T04:49:28.306Z,6.47
2023-03-05T04:51:57.506Z,6.05
2023-03-05T04:54:25.182Z,7.25
2023-03-05T04:56:52.936Z,5.90
2023-03-05T04:59:20.437Z,5.95
2023-03-05T05:01:47.944Z,6.50
2023-03-05T05:04:15.865Z,6.30
2023-03-05T05:06:43.321Z,5.25
2023-03-05T05:09:10.960Z,6.20
2023-03-05T05:11:40.069Z,6.18
2023-03-05T05:14:07.709Z,6.37
2023-03-05T05:16:35.270Z,6.78
2023-03-05T05:19:03.848Z,6.37
2023-03-05T05:21:31.398Z,6.57
2023-03-05T05:23:58.956Z,6.53
2023-03-05T05:26:27.027Z,6.03
2023-03-05T05:28:55.366Z,6.47
2023-03-05T05:31:22.954Z,7.10
2023-03-05T05:33:50.902Z,7.20
2023-03-05T05:36:22.497Z,6.37
2023-03-05T05:38:50.282Z,6.55
2023-03-05T05:41:19.290Z,6.37
2023-03-05T05:43:47.282Z,6.65
2023-03-05T05:46:17.391Z,7.07
2023-03-05T05:48:45.381Z,7.12
2023-03-05T05:51:21.764Z,7.25
2023-03-05T05:53:49.791Z,7.07
2023-03-05T05:56:18.035Z,7.78
2023-03-05T05:58:47.797Z,5.67
2023-03-05T06:01:30.894Z,6.93
2023-03-05T06:03:59.037Z,7.50
2023-03-05T06:06:27.841Z,7.00
2023-03-05T06:08:55.933Z,6.62
2023-03-05T06:11:23.992Z,6.93
2023-03-05T06:13:51.541Z,7.15
2023-03-05T06:16:24.005Z,6.18
2023-03-05T06:18:52.803Z,6.18
2023-03-05T06:21:21.950Z,6.80
2023-03-05T06:23:50.418Z,6.60
2023-03-05T06:26:20.810Z,6.28
2023-03-05T06:28:48.485Z,6.60
2023-03-05T06:31:19.008Z,6.95
2023-03-05T06:33:46.763Z,6.72
2023-03-05T06:36:16.807Z,6.50
2023-03-05T06:38:44.736Z,7.40
2023-03-05T06:41:16.749Z,6.37
2023-03-05T06:43:46.076Z,7.07
2023-03-05T06:46:23.252Z,6.90
2023-03-05T06:48:51.826Z,6.90
2023-03-05T06:51:22.554Z,6.57
2023-03-05T06:53:50.954Z,7.30
2023-03-05T06:56:19.542Z,7.03
2023-03-05T06:58:48.906Z,7.15
2023-03-05T07:01:16.724Z,7.33
2023-03-05T07:03:45.044Z,6.75
2023-03-05T07:06:14.411Z,6.85
2023-03-05T07:08:42.311Z,6.60
2023-03-05T07:11:17.882Z,6.47
2023-03-05T07:13:47.865Z,6.53
2023-03-05T07:16:21.821Z,6.78
2023-03-05T07:18:49.883Z,6.80
2023-03-05T07:21:19.778Z,6.82
2023-03-05T07:23:48.178Z,7.35
2023-03-05T07:26:16.229Z,6.77
2023-03-05T07:28:44.249Z,6.72
2023-03-05T07:31:19.884Z,6.62
2023-03-05T07:33:51.077Z,6.28
2023-03-05T07:36:21.593Z,7.40
2023-03-05T07:38:49.374Z,7.00
2023-03-05T07:41:23.509Z,7.15
2023-03-05T07:43:53.126Z,6.90
2023-03-05T07:46:23.334Z,7.20
2023-03-05T07:48:51.361Z,7.05
2023-03-05T07:51:20.151Z,6.50
2023-03-05T07:53:49.726Z,8.18
2023-03-05T07:56:31.692Z,6.70
2023-03-05T07:59:00.173Z,6.55
2023-03-05T08:01:29.372Z,6.90
2023-03-05T08:03:57.317Z,6.57
2023-03-05T08:06:24.920Z,6.93
2023-03-05T08:08:52.528Z,6.07
2023-03-05T08:11:20.477Z,7.80
2023-03-05T08:13:48.180Z,7.25
2023-03-05T08:16:20.438Z,7.77
2023-03-05T08:18:48.725Z,7.82
2023-03-05T08:21:21.459Z,8.02
2023-03-05T08:23:49.563Z,7.97
2023-03-05T08:26:19.883Z,6.97
2023-03-05T08:28:48.365Z,7.27
2023-03-05T08:31:17.788Z,7.32
2023-03-05T08:33:45.384Z,7.50
2023-03-05T08:36:13.410Z,6.60
2023-03-05T08:38:42.040Z,6.28
2023-03-05T08:41:09.655Z,6.93
2023-03-05T08:43:37.224Z,7.75
2023-03-05T08:46:05.496Z,7.18
2023-03-05T08:48:33.553Z,6.05
2023-03-05T08:51:08.977Z,7.15
2023-03-05T08:53:36.981Z,7.47
2023-03-05T08:56:04.881Z,8.15
2023-03-05T08:58:33.208Z,7.15
2023-03-05T09:01:01.420Z,7.05
2023-03-05T09:03:28.967Z,6.80
2023-03-05T09:06:01.492Z,7.57
2023-03-05T09:08:30.010Z,7.10
2023-03-05T09:10:57.815Z,7.12
2023-03-05T09:13:25.573Z,6.62
2023-03-05T09:16:01.830Z,6.90
2023-03-05T09:18:29.654Z,6.70
2023-03-05T09:20:57.705Z,7.40
2023-03-05T09:23:25.366Z,6.78
2023-03-05T09:25:52.972Z,7.50
2023-03-05T09:28:20.865Z,7.70
2023-03-05T09:30:48.920Z,7.27
2023-03-05T09:33:16.879Z,7.97
2023-03-05T09:35:44.887Z,7.60
2023-03-05T09:38:12.460Z,7.40
2023-03-05T09:40:53.815Z,6.62
2023-03-05T09:43:31.401Z,6.93
2023-03-05T09:46:22.936Z,7.32
2023-03-05T09:49:12.452Z,6.93
2023-03-05T09:51:42.057Z,8.57
2023-03-05T09:54:14.068Z,7.10
2023-03-05T09:56:45.050Z,8.03
2023-03-05T09:59:28.584Z,7.47
2023-03-05T10:01:59.937Z,7.75
2023-03-05T10:04:29.444Z,7.10
2023-03-05T10:07:02.797Z,6.70
2023-03-05T10:09:43.140Z,7.33
2023-03-05T10:12:42.946Z,7.00
2023-03-05T10:15:17.002Z,7.75
2023-03-05T10:17:49.999Z,6.87
2023-03-05T10:20:46.079Z,7.25
2023-03-05T10:23:29.344Z,6.77
2023-03-05T10:26:20.839Z,6.05
2023-03-05T10:29:07.278Z,6.25
2023-03-05T10:31:50.530Z,6.57
2023-03-05T10:34:33.811Z,6.03
2023-03-05T10:37:16.689Z,5.80
2023-03-05T10:40:25.833Z,6.45
2023-03-05T10:43:12.079Z,6.43
2023-03-05T10:45:43.376Z,6.60
2023-03-05T10:48:47.273Z,5.80
2023-03-05T10:51:22.777Z,6.73
2023-03-05T10:54:02.442Z,7.28
2023-03-05T10:56:31.838Z,6.87
2023-03-05T10:58:59.620Z,6.68
2023-03-05T11:01:29.642Z,6.35
2023-03-05T11:04:04.726Z,6.90
2023-03-05T11:06:34.006Z,5.35
2023-03-05T11:09:24.322Z,6.47
2023-03-05T11:12:11.789Z,6.50
2023-03-05T11:14:43.078Z,6.05
2023-03-05T11:17:44.763Z,5.67
2023-03-05T11:20:27.370Z,6.47
2023-03-05T11:23:05.859Z,6.35
2023-03-05T11:25:34.635Z,6.20
2023-03-05T11:28:04.049Z,6.05
2023-03-05T11:30:36.486Z,6.53
2023-03-05T11:33:08.862Z,6.07
2023-03-05T11:35:41.014Z,6.28
2023-03-05T11:38:19.606Z,6.30
2023-03-05T11:40:47.882Z,6.15
2023-03-05T11:43:18.573Z,6.47
2023-03-05T11:45:49.209Z,6.72
2023-03-05T11:48:24.806Z,5.57
2023-03-05T11:50:55.620Z,4.87
2023-03-05T11:53:29.522Z,4.75
2023-03-05T11:56:25.172Z,4.73
2023-03-05T11:59:03.751Z,4.70
2023-03-05T12:01:33.906Z,4.72
2023-03-05T12:04:02.173Z,4.32
2023-03-05T12:06:57.804Z,4.65
2023-03-05T12:09:43.474Z,4.83
2023-03-05T12:13:02.139Z,4.37
2023-03-05T12:15:47.746Z,4.80
2023-03-05T12:18:36.494Z,5.50
2023-03-05T12:21:32.895Z,5.28
2023-03-05T12:24:02.437Z,4.53
2023-03-05T12:26:56.400Z,4.87
2023-03-05T12:29:31.283Z,5.07
2023-03-05T12:32:01.006Z,4.47
2023-03-05T12:34:41.851Z,4.57
2023-03-05T12:37:22.014Z,4.50
2023-03-05T12:39:58.669Z,4.18
2023-03-05T12:42:29.759Z,4.53
2023-03-05T12:45:30.621Z,4.25
2023-03-05T12:47:58.375Z,4.47
2023-03-05T12:50:28.857Z,3.93
2023-03-05T12:53:05.006Z,4.50
2023-03-05T12:55:47.720Z,4.70
2023-03-05T12:58:36.075Z,3.58
2023-03-05T13:01:14.374Z,4.00
2023-03-05T13:04:19.809Z,4.90
2023-03-05T13:06:58.714Z,4.20
2023-03-05T13:09:29.958Z,4.22
2023-03-05T13:11:58.435Z,4.10
2023-03-05T13:14:28.415Z,3.80
2023-03-05T13:16:56.314Z,3.70
2023-03-05T13:19:24.258Z,3.75
2023-03-05T13:22:00.773Z,4.07
2023-03-05T13:24:30.047Z,3.95
2023-03-05T13:26:57.582Z,4.28
2023-03-05T13:29:28.189Z,3.40
2023-03-05T13:32:00.973Z,4.03
2023-03-05T13:34:46.271Z,4.03
2023-03-05T13:37:19.455Z,4.00
2023-03-05T13:39:52.106Z,3.90
2023-03-05T13:42:32.403Z,4.67
2023-03-05T13:45:02.545Z,4.78
2023-03-05T13:47:33.160Z,4.65
2023-03-05T13:50:04.846Z,4.43
2023-03-05T13:52:38.275Z,4.00
2023-03-05T13:55:14.715Z,4.00
2023-03-05T13:57:49.959Z,4.28
2023-03-05T14:00:35.192Z,4.10
2023-03-05T14:03:23.941Z,4.50
2023-03-05T14:05:51.555Z,4.15
2023-03-05T14:08:24.353Z,4.37
2023-03-05T14:10:53.315Z,4.43
2023-03-05T14:13:23.805Z,4.22
2023-03-05T14:16:07.467Z,4.43
2023-03-05T14:18:36.209Z,4.35
2023-03-05T14:21:03.686Z,4.67
2023-03-05T14:23:47.139Z,4.53
2023-03-05T14:26:36.338Z,4.55
2023-03-05T14:29:07.132Z,4.30
2023-03-05T14:31:51.729Z,4.28
2023-03-05T14:34:26.454Z,3.30
2023-03-05T14:36:56.537Z,4.53
2023-03-05T14:39:35.936Z,3.75
2023-03-05T14:42:39.060Z,3.75
2023-03-05T14:45:15.037Z,3.67
2023-03-05T14:47:43.021Z,4.10
2023-03-05T14:50:22.150Z,3.87
2023-03-05T14:52:52.311Z,3.78
2023-03-05T14:55:24.041Z,3.97
2023-03-05T14:57:55.924Z,3.62
2023-03-05T15:00:25.905Z,3.70
2023-03-05T15:02:53.835Z,3.33
2023-03-05T15:05:21.843Z,3.45
2023-03-05T15:07:49.897Z,4.00
2023-03-05T15:10:19.784Z,3.90
2023-03-05T15:12:47.643Z,3.33
2023-03-05T15:15:15.322Z,3.90
2023-03-05T15:17:47.400Z,4.07
2023-03-05T15:20:20.559Z,3.40
2023-03-05T15:22:49.779Z,3.87
2023-03-05T15:25:19.036Z,3.90
2023-03-05T15:27:47.030Z,3.53
2023-03-05T15:30:31.122Z,4.05
2023-03-05T15:33:02.320Z,3.75
2023-03-05T15:35:30.228Z,2.87
2023-03-05T15:38:00.683Z,3.30
2023-03-05T15:40:28.736Z,3.20
2023-03-05T15:42:57.474Z,3.40
2023-03-05T15:45:25.346Z,3.45
2023-03-05T15:47:53.562Z,3.60
2023-03-05T15:50:21.898Z,3.17
2023-03-05T15:52:49.489Z,3.47
2023-03-05T15:55:22.806Z,2.95
2023-03-05T15:57:52.212Z,3.40
2023-03-05T16:00:25.801Z,3.83
2023-03-05T16:02:54.119Z,3.50
2023-03-05T16:05:21.784Z,3.42
2023-03-05T16:07:51.804Z,3.22
2023-03-05T16:10:23.151Z,3.10
2023-03-05T16:12:57.936Z,3.22
2023-03-05T16:15:25.833Z,3.20
2023-03-05T16:17:55.021Z,3.00
2023-03-05T16:20:23.134Z,2.90
2023-03-05T16:22:51.040Z,2.92
2023-03-05T16:25:18.641Z,2.92
2023-03-05T16:27:46.253Z,3.30
2023-03-05T16:30:17.655Z,2.97
2023-03-05T16:32:45.420Z,2.80
2023-03-05T16:35:13.738Z,2.72
2023-03-05T16:37:44.454Z,2.62
2023-03-05T16:40:12.881Z,3.20
2023-03-05T16:42:40.493Z,2.55
2023-03-05T16:45:09.380Z,2.40
2023-03-05T16:47:36.972Z,2.60
2023-03-05T16:50:04.802Z,2.53
2023-03-05T16:52:32.745Z,2.87
2023-03-05T16:55:00.446Z,2.62
2023-03-05T16:57:29.016Z,2.85
2023-03-05T16:59:58.486Z,2.58
2023-03-05T17:02:26.053Z,2.62
2023-03-05T17:04:54.320Z,2.20
2023-03-05T17:07:22.122Z,2.85
2023-03-05T17:09:50.502Z,2.97
2023-03-05T17:12:17.968Z,3.25
2023-03-05T17:14:45.863Z,2.87
2023-03-05T17:17:13.603Z,3.17
2023-03-05T17:19:41.304Z,3.20
2023-03-05T17:22:10.556Z,3.03
2023-03-05T17:24:38.630Z,3.00
2023-03-05T17:27:06.516Z,4.28
2023-03-05T17:29:34.105Z,3.43
2023-03-05T17:32:02.205Z,4.65
2023-03-05T17:34:35.966Z,4.37
2023-03-05T17:37:05.300Z,4.43
2023-03-05T17:39:33.688Z,4.47
2023-03-05T17:42:01.572Z,4.20
2023-03-05T17:44:29.487Z,3.72
2023-03-05T17:46:57.050Z,3.35
2023-03-05T17:49:24.591Z,3.08
2023-03-05T17:51:52.633Z,3.30
2023-03-05T17:54:20.286Z,3.50
2023-03-05T17:56:48.110Z,3.37
2023-03-05T17:59:16.447Z,3.85
2023-03-05T18:01:44.027Z,4.37
2023-03-05T18:04:12.874Z,4.57
2023-03-05T18:06:40.879Z,4.27
2023-03-05T18:09:08.731Z,5.90
2023-03-05T18:11:36.529Z,3.85
2023-03-05T18:14:04.384Z,3.30
2023-03-05T18:16:31.998Z,3.47
2023-03-05T18:18:59.872Z,4.53
2023-03-05T18:21:28.186Z,4.35
2023-03-05T18:23:55.845Z,4.20
2023-03-05T18:26:23.666Z,4.20
2023-03-05T18:28:51.404Z,4.30
2023-03-05T18:31:19.433Z,3.80
2023-03-05T18:33:47.231Z,3.78
2023-03-05T18:36:15.132Z,3.58
2023-03-05T18:38:42.962Z,3.75
2023-03-05T18:41:22.696Z,4.03
2023-03-05T18:43:50.720Z,4.47
2023-03-05T18:46:18.742Z,4.18
2023-03-05T18:48:48.088Z,3.20
2023-03-05T18:51:19.127Z,3.80
2023-03-05T18:53:47.040Z,3.83
2023-03-05T18:56:14.563Z,3.80
2023-03-05T18:58:42.078Z,3.67
2023-03-05T19:01:09.942Z,3.25
2023-03-05T19:03:37.671Z,3.83
2023-03-05T19:06:09.376Z,3.60
2023-03-05T19:08:37.317Z,4.37
2023-03-05T19:11:22.700Z,4.75
2023-03-05T19:13:51.792Z,4.20
2023-03-05T19:16:22.451Z,3.92
2023-03-05T19:19:18.850Z,3.83
2023-03-05T19:21:48.339Z,3.53
2023-03-05T19:24:17.259Z,3.92
2023-03-05T19:26:45.207Z,3.33
2023-03-05T19:29:13.126Z,3.90
2023-03-05T19:31:41.674Z,4.18
2023-03-05T19:34:09.340Z,4.70
2023-03-05T19:36:37.095Z,4.07
2023-03-05T19:39:06.348Z,5.00
2023-03-05T19:41:34.337Z,4.68
2023-03-05T19:44:02.456Z,4.87
2023-03-05T19:46:30.895Z,4.23
2023-03-05T19:48:58.766Z,4.50
2023-03-05T19:51:26.975Z,3.90
2023-03-05T19:53:55.631Z,3.58
2023-03-05T19:56:23.243Z,3.78
2023-03-05T19:58:51.031Z,3.30
2023-03-05T20:01:22.089Z,3.12
2023-03-05T20:03:51.932Z,3.40
2023-03-05T20:06:20.873Z,3.30
2023-03-05T20:08:48.621Z,3.50
2023-03-05T20:11:17.914Z,3.47
2023-03-05T20:13:45.858Z,2.87
2023-03-05T20:16:21.431Z,3.45
2023-03-05T20:18:54.769Z,3.50
2023-03-05T20:21:25.502Z,3.35
2023-03-05T20:23:55.675Z,3.73
2023-03-05T20:26:25.820Z,3.72
2023-03-05T20:28:55.045Z,3.33
2023-03-05T20:31:24.416Z,2.85
2023-03-05T20:33:51.989Z,2.97
2023-03-05T20:36:19.849Z,2.87
2023-03-05T20:38:47.542Z,3.00
2023-03-05T20:41:17.600Z,2.58
2023-03-05T20:43:48.905Z,2.90
2023-03-05T20:46:34.124Z,3.87
2023-03-05T20:49:03.987Z,4.00
2023-03-05T20:51:37.862Z,3.72
2023-03-05T20:54:11.646Z,3.30
2023-03-05T20:56:39.654Z,3.53
2023-03-05T20:59:08.936Z,3.12
2023-03-05T21:01:39.003Z,4.07
2023-03-05T21:04:07.383Z,3.80
2023-03-05T21:06:35.107Z,3.85
2023-03-05T21:09:03.730Z,4.05
2023-03-05T21:11:32.287Z,5.07
2023-03-05T21:13:59.807Z,3.57
2023-03-05T21:16:28.113Z,4.10
2023-03-05T21:18:57.221Z,5.75
2023-03-05T21:21:25.707Z,5.72
2023-03-05T21:23:53.616Z,6.20
2023-03-05T21:26:22.099Z,5.67
2023-03-05T21:28:49.635Z,5.80
2023-03-05T21:31:19.963Z,5.75
2023-03-05T21:33:48.997Z,9.10
2023-03-05T21:36:19.302Z,10.30
2023-03-05T21:38:48.085Z,12.70
2023-03-05T21:41:18.106Z,13.02
2023-03-05T21:43:45.765Z,10.38
2023-03-05T21:46:13.276Z,6.85
2023-03-05T21:48:41.143Z,5.68
2023-03-05T21:52:05.126Z,5.77
2023-03-05T21:54:32.876Z,5.43
2023-03-05T21:57:00.521Z,4.80
2023-03-05T21:59:32.423Z,3.75
2023-03-05T22:02:00.439Z,4.30
2023-03-05T22:04:28.202Z,3.93
2023-03-05T22:06:56.948Z,4.37
2023-03-05T22:09:24.404Z,4.45
2023-03-05T22:11:52.223Z,4.35
2023-03-05T22:14:19.718Z,3.85
2023-03-05T22:16:47.404Z,4.13
2023-03-05T22:19:15.376Z,4.12
2023-03-05T22:21:42.857Z,4.07
2023-03-05T22:24:10.435Z,3.40
2023-03-05T22:26:39.937Z,4.07
2023-03-05T22:29:09.711Z,3.43
2023-03-05T22:31:37.766Z,4.00
2023-03-05T22:34:05.491Z,4.80
2023-03-05T22:36:32.934Z,4.82
2023-03-05T22:39:00.474Z,4.80
2023-03-05T22:41:28.390Z,4.57
2023-03-05T22:43:55.964Z,4.75
2023-03-05T22:46:25.605Z,4.95
2023-03-05T22:48:53.912Z,4.75
2023-03-05T22:51:21.869Z,4.57
2023-03-05T22:53:49.542Z,4.13
2023-03-05T22:56:19.516Z,4.65
2023-03-05T22:58:47.055Z,4.22
2023-03-05T23:01:19.596Z,4.47
2023-03-05T23:04:49.359Z,5.22
2023-03-05T23:07:19.381Z,4.50
2023-03-05T23:10:02.437Z,5.10
2023-03-05T23:12:32.602Z,5.35
2023-03-05T23:15:01.708Z,5.05
2023-03-05T23:17:29.725Z,5.30
2023-03-05T23:19:57.212Z,4.60
2023-03-05T23:22:25.030Z,5.07
2023-03-05T23:24:52.552Z,5.43
2023-03-05T23:27:20.037Z,5.05
2023-03-05T23:30:21.543Z,4.82
2023-03-05T23:32:50.675Z,5.17
2023-03-05T23:35:36.585Z,5.18
2023-03-05T23:38:08.188Z,4.62
2023-03-05T23:40:40.005Z,4.75
2023-03-05T23:43:07.879Z,4.53
2023-03-05T23:45:35.948Z,4.93
2023-03-05T23:48:03.922Z,5.35
2023-03-05T23:50:33.640Z,4.55
2023-03-05T23:53:02.403Z,4.78
2023-03-05T23:55:34.207Z,4.65
2023-03-05T23:58:02.639Z,5.10
